sensor_id;sensor_type;location;lat;lon;timestamp;temperature;humidity
2024;DHT22;1016;48.770;9.154;2022-09-09T00:02:01;19.90;99.90
2024;DHT22;1016;48.770;9.154;2022-09-09T00:04:32;19.90;99.90
2024;DHT22;1016;48.770;9.154;2022-09-09T00:07:14;19.80;99.90
2024;DHT22;1016;48.770;9.154;2022-09-09T00:09:54;19.80;99.90
2024;DHT22;1016;48.770;9.154;2022-09-09T00:12:32;19.70;99.90
2024;DHT22;1016;48.770;9.154;2022-09-09T00:15:02;19.70;99.90
2024;DHT22;1016;48.770;9.154;2022-09-09T00:17:39;19.70;99.90
2024;DHT22;1016;48.770;9.154;2022-09-09T00:20:40;19.70;99.90
2024;DHT22;1016;48.770;9.154;2022-09-09T00:23:29;19.70;99.90
2024;DHT22;1016;48.770;9.154;2022-09-09T00:26:10;19.80;99.90
2024;DHT22;1016;48.770;9.154;2022-09-09T00:31:27;19.80;99.90
2024;DHT22;1016;48.770;9.154;2022-09-09T00:33:53;19.80;99.90
2024;DHT22;1016;48.770;9.154;2022-09-09T00:36:23;19.90;99.90
2024;DHT22;1016;48.770;9.154;2022-09-09T00:38:57;19.90;99.90
2024;DHT22;1016;48.770;9.154;2022-09-09T00:41:54;20.00;99.90
2024;DHT22;1016;48.770;9.154;2022-09-09T00:52:38;20.10;99.90
2024;DHT22;1016;48.770;9.154;2022-09-09T00:55:41;20.20;99.90
2024;DHT22;1016;48.770;9.154;2022-09-09T00:58:09;20.20;99.90
2024;DHT22;1016;48.770;9.154;2022-09-09T01:01:11;20.20;99.90
2024;DHT22;1016;48.770;9.154;2022-09-09T01:03:51;20.20;99.90
2024;DHT22;1016;48.770;9.154;2022-09-09T01:06:33;20.30;99.90
2024;DHT22;1016;48.770;9.154;2022-09-09T01:17:14;20.30;99.90
2024;DHT22;1016;48.770;9.154;2022-09-09T01:19:53;20.30;99.90
2024;DHT22;1016;48.770;9.154;2022-09-09T01:25:11;20.30;99.90
2024;DHT22;1016;48.770;9.154;2022-09-09T01:27:41;20.30;99.90
2024;DHT22;1016;48.770;9.154;2022-09-09T01:30:11;20.40;99.90
2024;DHT22;1016;48.770;9.154;2022-09-09T01:32:52;20.30;99.90
2024;DHT22;1016;48.770;9.154;2022-09-09T01:37:53;20.30;99.90
2024;DHT22;1016;48.770;9.154;2022-09-09T01:40:19;20.20;99.90
2024;DHT22;1016;48.770;9.154;2022-09-09T01:42:44;20.20;99.90
2024;DHT22;1016;48.770;9.154;2022-09-09T01:45:10;20.20;99.90
2024;DHT22;1016;48.770;9.154;2022-09-09T01:47:35;20.20;99.90
2024;DHT22;1016;48.770;9.154;2022-09-09T01:50:02;20.20;99.90
2024;DHT22;1016;48.770;9.154;2022-09-09T01:52:28;20.20;99.90
2024;DHT22;1016;48.770;9.154;2022-09-09T01:54:54;20.30;99.90
2024;DHT22;1016;48.770;9.154;2022-09-09T02:00:15;20.30;99.90
2024;DHT22;1016;48.770;9.154;2022-09-09T02:05:39;20.30;99.90
2024;DHT22;1016;48.770;9.154;2022-09-09T02:11:26;20.30;99.90
2024;DHT22;1016;48.770;9.154;2022-09-09T02:13:54;20.30;99.90
2024;DHT22;1016;48.770;9.154;2022-09-09T02:16:33;20.40;99.90
2024;DHT22;1016;48.770;9.154;2022-09-09T02:21:59;20.30;99.90
2024;DHT22;1016;48.770;9.154;2022-09-09T02:24:27;20.30;99.90
2024;DHT22;1016;48.770;9.154;2022-09-09T02:26:55;20.30;99.90
2024;DHT22;1016;48.770;9.154;2022-09-09T02:29:31;20.30;99.90
2024;DHT22;1016;48.770;9.154;2022-09-09T02:32:03;20.30;99.90
2024;DHT22;1016;48.770;9.154;2022-09-09T02:34:32;20.30;99.90
2024;DHT22;1016;48.770;9.154;2022-09-09T02:36:59;20.30;99.90
2024;DHT22;1016;48.770;9.154;2022-09-09T02:39:26;20.30;99.90
2024;DHT22;1016;48.770;9.154;2022-09-09T02:41:51;20.30;99.90
2024;DHT22;1016;48.770;9.154;2022-09-09T02:44:18;20.30;99.90
2024;DHT22;1016;48.770;9.154;2022-09-09T02:47:04;20.30;99.90
2024;DHT22;1016;48.770;9.154;2022-09-09T02:52:27;20.30;99.90
2024;DHT22;1016;48.770;9.154;2022-09-09T02:54:59;20.30;99.90
2024;DHT22;1016;48.770;9.154;2022-09-09T02:57:31;20.20;99.90
2024;DHT22;1016;48.770;9.154;2022-09-09T02:59:58;20.20;99.90
2024;DHT22;1016;48.770;9.154;2022-09-09T03:02:25;20.20;99.90
2024;DHT22;1016;48.770;9.154;2022-09-09T03:04:51;20.20;99.90
2024;DHT22;1016;48.770;9.154;2022-09-09T03:07:17;20.20;99.90
2024;DHT22;1016;48.770;9.154;2022-09-09T03:09:43;20.20;99.90
2024;DHT22;1016;48.770;9.154;2022-09-09T03:12:09;20.20;99.90
2024;DHT22;1016;48.770;9.154;2022-09-09T03:14:36;20.20;99.90
2024;DHT22;1016;48.770;9.154;2022-09-09T03:17:03;20.20;99.90
2024;DHT22;1016;48.770;9.154;2022-09-09T03:19:29;20.20;99.90
2024;DHT22;1016;48.770;9.154;2022-09-09T03:21:55;20.20;99.90
2024;DHT22;1016;48.770;9.154;2022-09-09T03:24:20;20.20;99.90
2024;DHT22;1016;48.770;9.154;2022-09-09T03:26:48;20.10;99.90
2024;DHT22;1016;48.770;9.154;2022-09-09T03:29:13;20.30;99.90
2024;DHT22;1016;48.770;9.154;2022-09-09T03:31:40;20.00;99.90
2024;DHT22;1016;48.770;9.154;2022-09-09T03:34:05;20.00;99.90
2024;DHT22;1016;48.770;9.154;2022-09-09T03:36:31;19.90;99.90
2024;DHT22;1016;48.770;9.154;2022-09-09T03:38:57;19.90;99.90
2024;DHT22;1016;48.770;9.154;2022-09-09T03:41:24;19.90;99.90
2024;DHT22;1016;48.770;9.154;2022-09-09T03:43:53;19.80;99.90
2024;DHT22;1016;48.770;9.154;2022-09-09T03:46:20;19.80;99.90
2024;DHT22;1016;48.770;9.154;2022-09-09T03:48:46;19.80;99.90
2024;DHT22;1016;48.770;9.154;2022-09-09T03:51:12;19.80;99.90
2024;DHT22;1016;48.770;9.154;2022-09-09T03:53:37;19.80;99.90
2024;DHT22;1016;48.770;9.154;2022-09-09T03:56:04;19.70;99.90
2024;DHT22;1016;48.770;9.154;2022-09-09T03:58:32;19.70;99.90
2024;DHT22;1016;48.770;9.154;2022-09-09T04:01:01;19.80;99.90
2024;DHT22;1016;48.770;9.154;2022-09-09T04:03:27;19.70;99.90
2024;DHT22;1016;48.770;9.154;2022-09-09T04:05:53;19.70;99.90
2024;DHT22;1016;48.770;9.154;2022-09-09T04:08:20;19.70;99.90
2024;DHT22;1016;48.770;9.154;2022-09-09T04:10:47;19.60;99.90
2024;DHT22;1016;48.770;9.154;2022-09-09T04:13:14;19.60;99.90
2024;DHT22;1016;48.770;9.154;2022-09-09T04:15:41;19.60;99.90
2024;DHT22;1016;48.770;9.154;2022-09-09T04:18:07;19.60;99.90
2024;DHT22;1016;48.770;9.154;2022-09-09T04:20:33;19.60;99.90
2024;DHT22;1016;48.770;9.154;2022-09-09T04:22:59;19.60;99.90
2024;DHT22;1016;48.770;9.154;2022-09-09T04:25:25;19.70;99.90
2024;DHT22;1016;48.770;9.154;2022-09-09T04:27:57;19.70;99.90
2024;DHT22;1016;48.770;9.154;2022-09-09T04:30:24;19.70;99.90
2024;DHT22;1016;48.770;9.154;2022-09-09T04:32:49;19.80;99.90
2024;DHT22;1016;48.770;9.154;2022-09-09T04:35:15;19.80;99.90
2024;DHT22;1016;48.770;9.154;2022-09-09T04:37:41;19.80;99.90
2024;DHT22;1016;48.770;9.154;2022-09-09T04:40:07;19.80;99.90
2024;DHT22;1016;48.770;9.154;2022-09-09T04:42:39;19.80;99.90
2024;DHT22;1016;48.770;9.154;2022-09-09T04:45:06;19.70;99.90
2024;DHT22;1016;48.770;9.154;2022-09-09T04:47:32;19.70;99.90
2024;DHT22;1016;48.770;9.154;2022-09-09T04:49:58;19.70;99.90
2024;DHT22;1016;48.770;9.154;2022-09-09T04:52:23;19.60;99.90
2024;DHT22;1016;48.770;9.154;2022-09-09T04:54:49;19.60;99.90
2024;DHT22;1016;48.770;9.154;2022-09-09T04:57:14;19.60;99.90
2024;DHT22;1016;48.770;9.154;2022-09-09T04:59:40;19.50;99.90
2024;DHT22;1016;48.770;9.154;2022-09-09T05:02:06;19.50;99.90
2024;DHT22;1016;48.770;9.154;2022-09-09T05:04:31;19.40;99.90
2024;DHT22;1016;48.770;9.154;2022-09-09T05:06:58;19.40;99.90
2024;DHT22;1016;48.770;9.154;2022-09-09T05:09:24;19.30;99.90
2024;DHT22;1016;48.770;9.154;2022-09-09T05:14:16;19.20;99.90
2024;DHT22;1016;48.770;9.154;2022-09-09T05:16:44;19.20;99.90
2024;DHT22;1016;48.770;9.154;2022-09-09T05:19:10;19.20;99.90
2024;DHT22;1016;48.770;9.154;2022-09-09T05:21:35;19.20;99.90
2024;DHT22;1016;48.770;9.154;2022-09-09T05:24:01;19.20;99.90
2024;DHT22;1016;48.770;9.154;2022-09-09T05:26:27;19.20;99.90
2024;DHT22;1016;48.770;9.154;2022-09-09T05:28:54;19.20;99.90
2024;DHT22;1016;48.770;9.154;2022-09-09T05:31:20;19.30;99.90
2024;DHT22;1016;48.770;9.154;2022-09-09T05:33:47;19.20;99.90
2024;DHT22;1016;48.770;9.154;2022-09-09T05:36:18;19.20;99.90
2024;DHT22;1016;48.770;9.154;2022-09-09T05:38:45;19.20;99.90
2024;DHT22;1016;48.770;9.154;2022-09-09T05:41:11;19.30;99.90
2024;DHT22;1016;48.770;9.154;2022-09-09T05:43:38;19.30;99.90
2024;DHT22;1016;48.770;9.154;2022-09-09T05:46:06;19.40;99.90
2024;DHT22;1016;48.770;9.154;2022-09-09T05:48:38;19.40;99.90
2024;DHT22;1016;48.770;9.154;2022-09-09T05:51:04;19.40;99.90
2024;DHT22;1016;48.770;9.154;2022-09-09T05:53:32;19.50;99.90
2024;DHT22;1016;48.770;9.154;2022-09-09T05:56:02;19.60;99.90
2024;DHT22;1016;48.770;9.154;2022-09-09T05:58:29;19.60;99.90
2024;DHT22;1016;48.770;9.154;2022-09-09T06:01:06;19.60;99.90
2024;DHT22;1016;48.770;9.154;2022-09-09T06:03:34;19.70;99.90
2024;DHT22;1016;48.770;9.154;2022-09-09T06:06:02;19.80;99.90
2024;DHT22;1016;48.770;9.154;2022-09-09T06:08:30;19.80;99.90
2024;DHT22;1016;48.770;9.154;2022-09-09T06:11:01;19.80;99.90
2024;DHT22;1016;48.770;9.154;2022-09-09T06:13:28;19.90;99.90
2024;DHT22;1016;48.770;9.154;2022-09-09T06:15:53;19.90;99.90
2024;DHT22;1016;48.770;9.154;2022-09-09T06:18:20;20.00;99.90
2024;DHT22;1016;48.770;9.154;2022-09-09T06:20:59;20.00;99.90
2024;DHT22;1016;48.770;9.154;2022-09-09T06:23:26;20.00;99.90
2024;DHT22;1016;48.770;9.154;2022-09-09T06:26:10;20.00;99.90
2024;DHT22;1016;48.770;9.154;2022-09-09T06:28:36;20.10;99.90
2024;DHT22;1016;48.770;9.154;2022-09-09T06:31:10;20.10;99.90
2024;DHT22;1016;48.770;9.154;2022-09-09T06:33:38;20.10;99.90
2024;DHT22;1016;48.770;9.154;2022-09-09T06:36:15;20.10;99.90
2024;DHT22;1016;48.770;9.154;2022-09-09T06:38:41;20.10;99.90
2024;DHT22;1016;48.770;9.154;2022-09-09T06:41:08;20.10;99.90
2024;DHT22;1016;48.770;9.154;2022-09-09T06:43:34;20.10;99.90
2024;DHT22;1016;48.770;9.154;2022-09-09T06:46:09;20.20;99.90
2024;DHT22;1016;48.770;9.154;2022-09-09T06:48:35;20.20;99.90
2024;DHT22;1016;48.770;9.154;2022-09-09T06:51:10;20.30;99.90
2024;DHT22;1016;48.770;9.154;2022-09-09T06:53:41;20.30;99.90
2024;DHT22;1016;48.770;9.154;2022-09-09T06:58:36;20.30;99.90
2024;DHT22;1016;48.770;9.154;2022-09-09T07:01:06;20.40;99.90
2024;DHT22;1016;48.770;9.154;2022-09-09T07:03:32;20.40;99.90
2024;DHT22;1016;48.770;9.154;2022-09-09T07:05:59;20.50;99.90
2024;DHT22;1016;48.770;9.154;2022-09-09T07:08:25;20.50;99.90
2024;DHT22;1016;48.770;9.154;2022-09-09T07:10:52;20.60;99.90
2024;DHT22;1016;48.770;9.154;2022-09-09T07:13:25;20.60;99.90
2024;DHT22;1016;48.770;9.154;2022-09-09T07:15:51;20.60;99.90
2024;DHT22;1016;48.770;9.154;2022-09-09T07:18:17;20.60;99.90
2024;DHT22;1016;48.770;9.154;2022-09-09T07:20:43;20.60;99.90
2024;DHT22;1016;48.770;9.154;2022-09-09T07:23:08;20.70;99.90
2024;DHT22;1016;48.770;9.154;2022-09-09T07:25:34;20.70;99.90
2024;DHT22;1016;48.770;9.154;2022-09-09T07:27:59;20.80;99.90
2024;DHT22;1016;48.770;9.154;2022-09-09T07:30:25;20.80;99.90
2024;DHT22;1016;48.770;9.154;2022-09-09T07:32:51;20.70;99.90
2024;DHT22;1016;48.770;9.154;2022-09-09T07:35:17;20.90;99.90
2024;DHT22;1016;48.770;9.154;2022-09-09T07:37:43;21.10;99.90
2024;DHT22;1016;48.770;9.154;2022-09-09T07:40:09;21.10;99.90
2024;DHT22;1016;48.770;9.154;2022-09-09T07:42:35;21.10;99.90
2024;DHT22;1016;48.770;9.154;2022-09-09T07:45:03;21.20;99.90
2024;DHT22;1016;48.770;9.154;2022-09-09T07:47:29;21.20;99.90
2024;DHT22;1016;48.770;9.154;2022-09-09T07:49:54;21.30;99.90
2024;DHT22;1016;48.770;9.154;2022-09-09T07:52:21;21.30;99.90
2024;DHT22;1016;48.770;9.154;2022-09-09T07:54:46;21.40;99.90
2024;DHT22;1016;48.770;9.154;2022-09-09T07:57:12;21.40;99.90
2024;DHT22;1016;48.770;9.154;2022-09-09T07:59:37;21.30;99.90
2024;DHT22;1016;48.770;9.154;2022-09-09T08:02:04;21.40;99.90
2024;DHT22;1016;48.770;9.154;2022-09-09T08:04:29;21.50;99.90
2024;DHT22;1016;48.770;9.154;2022-09-09T08:06:57;21.60;99.90
2024;DHT22;1016;48.770;9.154;2022-09-09T08:09:24;21.70;99.90
2024;DHT22;1016;48.770;9.154;2022-09-09T08:11:52;21.80;99.90
2024;DHT22;1016;48.770;9.154;2022-09-09T08:14:17;21.90;99.90
2024;DHT22;1016;48.770;9.154;2022-09-09T08:16:45;22.00;99.90
2024;DHT22;1016;48.770;9.154;2022-09-09T08:19:12;22.00;99.90
2024;DHT22;1016;48.770;9.154;2022-09-09T08:21:41;22.00;99.90
2024;DHT22;1016;48.770;9.154;2022-09-09T08:24:08;22.10;99.90
2024;DHT22;1016;48.770;9.154;2022-09-09T08:26:36;22.10;99.90
2024;DHT22;1016;48.770;9.154;2022-09-09T08:29:05;22.20;99.90
2024;DHT22;1016;48.770;9.154;2022-09-09T08:31:39;22.20;99.90
2024;DHT22;1016;48.770;9.154;2022-09-09T08:34:06;22.20;99.90
2024;DHT22;1016;48.770;9.154;2022-09-09T08:36:35;22.30;99.90
2024;DHT22;1016;48.770;9.154;2022-09-09T08:39:02;22.30;99.90
2024;DHT22;1016;48.770;9.154;2022-09-09T08:47:30;22.40;99.90
2024;DHT22;1016;48.770;9.154;2022-09-09T08:50:25;22.40;99.90
2024;DHT22;1016;48.770;9.154;2022-09-09T08:53:17;22.50;99.90
2024;DHT22;1016;48.770;9.154;2022-09-09T08:56:23;22.50;99.90
2024;DHT22;1016;48.770;9.154;2022-09-09T08:58:52;22.60;99.90
2024;DHT22;1016;48.770;9.154;2022-09-09T09:04:29;22.70;99.90
2024;DHT22;1016;48.770;9.154;2022-09-09T09:10:12;22.80;99.90
2024;DHT22;1016;48.770;9.154;2022-09-09T09:12:43;22.80;99.90
2024;DHT22;1016;48.770;9.154;2022-09-09T09:15:26;22.80;99.90
2024;DHT22;1016;48.770;9.154;2022-09-09T09:17:53;22.70;99.90
2024;DHT22;1016;48.770;9.154;2022-09-09T09:20:28;22.60;99.90
2024;DHT22;1016;48.770;9.154;2022-09-09T09:22:59;22.60;99.90
2024;DHT22;1016;48.770;9.154;2022-09-09T09:25:36;22.60;99.90
2024;DHT22;1016;48.770;9.154;2022-09-09T09:28:17;22.60;99.90
2024;DHT22;1016;48.770;9.154;2022-09-09T09:31:09;22.60;99.90
2024;DHT22;1016;48.770;9.154;2022-09-09T09:33:53;22.50;99.90
2024;DHT22;1016;48.770;9.154;2022-09-09T09:36:20;22.50;99.90
2024;DHT22;1016;48.770;9.154;2022-09-09T09:38:58;22.40;99.90
2024;DHT22;1016;48.770;9.154;2022-09-09T09:41:42;22.40;99.90
2024;DHT22;1016;48.770;9.154;2022-09-09T09:44:40;22.20;99.90
2024;DHT22;1016;48.770;9.154;2022-09-09T09:47:11;22.10;99.90
2024;DHT22;1016;48.770;9.154;2022-09-09T09:49:37;22.10;99.90
2024;DHT22;1016;48.770;9.154;2022-09-09T09:52:04;22.10;99.90
2024;DHT22;1016;48.770;9.154;2022-09-09T09:54:33;22.20;99.90
2024;DHT22;1016;48.770;9.154;2022-09-09T09:57:13;22.30;99.90
2024;DHT22;1016;48.770;9.154;2022-09-09T09:59:40;22.40;99.90
2024;DHT22;1016;48.770;9.154;2022-09-09T10:04:46;22.40;99.90
2024;DHT22;1016;48.770;9.154;2022-09-09T10:07:21;22.50;99.90
2024;DHT22;1016;48.770;9.154;2022-09-09T10:09:57;22.50;99.90
2024;DHT22;1016;48.770;9.154;2022-09-09T10:20:45;22.60;99.90
2024;DHT22;1016;48.770;9.154;2022-09-09T10:26:26;22.80;99.90
2024;DHT22;1016;48.770;9.154;2022-09-09T10:29:08;22.90;99.90
2024;DHT22;1016;48.770;9.154;2022-09-09T10:31:48;23.00;99.90
2024;DHT22;1016;48.770;9.154;2022-09-09T10:34:42;23.10;99.90
2024;DHT22;1016;48.770;9.154;2022-09-09T10:37:38;23.10;99.90
2024;DHT22;1016;48.770;9.154;2022-09-09T10:42:42;23.30;99.90
2024;DHT22;1016;48.770;9.154;2022-09-09T10:45:23;23.40;99.90
2024;DHT22;1016;48.770;9.154;2022-09-09T10:53:13;23.50;99.90
2024;DHT22;1016;48.770;9.154;2022-09-09T10:55:43;23.60;99.90
2024;DHT22;1016;48.770;9.154;2022-09-09T10:58:23;23.60;99.90
2024;DHT22;1016;48.770;9.154;2022-09-09T11:00:54;23.70;99.90
2024;DHT22;1016;48.770;9.154;2022-09-09T11:03:29;23.80;99.90
2024;DHT22;1016;48.770;9.154;2022-09-09T11:06:06;23.80;99.90
2024;DHT22;1016;48.770;9.154;2022-09-09T11:08:38;23.80;99.90
2024;DHT22;1016;48.770;9.154;2022-09-09T11:11:12;23.90;99.90
2024;DHT22;1016;48.770;9.154;2022-09-09T11:18:48;23.90;99.90
2024;DHT22;1016;48.770;9.154;2022-09-09T11:21:23;23.70;99.90
2024;DHT22;1016;48.770;9.154;2022-09-09T11:23:57;23.60;99.90
2024;DHT22;1016;48.770;9.154;2022-09-09T11:26:37;23.50;99.90
2024;DHT22;1016;48.770;9.154;2022-09-09T11:40:40;23.00;99.90
2024;DHT22;1016;48.770;9.154;2022-09-09T11:43:12;22.80;99.90
2024;DHT22;1016;48.770;9.154;2022-09-09T11:45:40;22.70;99.90
2024;DHT22;1016;48.770;9.154;2022-09-09T11:48:23;22.50;99.90
2024;DHT22;1016;48.770;9.154;2022-09-09T11:53:57;22.50;99.90
2024;DHT22;1016;48.770;9.154;2022-09-09T11:59:03;22.20;99.90
2024;DHT22;1016;48.770;9.154;2022-09-09T12:01:42;22.10;99.90
2024;DHT22;1016;48.770;9.154;2022-09-09T12:06:48;22.20;99.90
2024;DHT22;1016;48.770;9.154;2022-09-09T12:10:04;22.30;99.90
2024;DHT22;1016;48.770;9.154;2022-09-09T12:19:40;22.40;99.90
2024;DHT22;1016;48.770;9.154;2022-09-09T12:22:29;22.50;99.90
2024;DHT22;1016;48.770;9.154;2022-09-09T12:25:21;22.60;99.90
2024;DHT22;1016;48.770;9.154;2022-09-09T12:28:04;22.80;99.90
2024;DHT22;1016;48.770;9.154;2022-09-09T12:30:47;22.80;99.90
2024;DHT22;1016;48.770;9.154;2022-09-09T12:33:17;22.90;99.90
2024;DHT22;1016;48.770;9.154;2022-09-09T12:35:47;22.90;99.90
2024;DHT22;1016;48.770;9.154;2022-09-09T12:38:23;23.00;99.90
2024;DHT22;1016;48.770;9.154;2022-09-09T12:40:56;23.10;99.60
2024;DHT22;1016;48.770;9.154;2022-09-09T12:43:24;23.20;98.30
2024;DHT22;1016;48.770;9.154;2022-09-09T12:45:52;23.20;98.00
2024;DHT22;1016;48.770;9.154;2022-09-09T12:48:30;23.20;97.90
2024;DHT22;1016;48.770;9.154;2022-09-09T12:50:57;23.20;98.30
2024;DHT22;1016;48.770;9.154;2022-09-09T12:53:30;23.20;98.40
2024;DHT22;1016;48.770;9.154;2022-09-09T12:55:59;23.20;98.70
2024;DHT22;1016;48.770;9.154;2022-09-09T12:58:26;23.30;99.00
2024;DHT22;1016;48.770;9.154;2022-09-09T13:00:55;23.30;99.10
2024;DHT22;1016;48.770;9.154;2022-09-09T13:03:25;23.50;99.50
2024;DHT22;1016;48.770;9.154;2022-09-09T13:05:51;23.50;98.40
2024;DHT22;1016;48.770;9.154;2022-09-09T13:08:18;23.50;97.90
2024;DHT22;1016;48.770;9.154;2022-09-09T13:11:03;23.60;98.30
2024;DHT22;1016;48.770;9.154;2022-09-09T13:13:30;23.60;98.30
2024;DHT22;1016;48.770;9.154;2022-09-09T13:16:00;23.60;98.30
2024;DHT22;1016;48.770;9.154;2022-09-09T13:18:33;23.70;98.50
2024;DHT22;1016;48.770;9.154;2022-09-09T13:20:59;23.80;98.40
2024;DHT22;1016;48.770;9.154;2022-09-09T13:23:34;23.90;98.30
2024;DHT22;1016;48.770;9.154;2022-09-09T13:26:06;24.00;98.40
2024;DHT22;1016;48.770;9.154;2022-09-09T13:28:44;24.10;98.10
2024;DHT22;1016;48.770;9.154;2022-09-09T13:31:32;24.10;98.10
2024;DHT22;1016;48.770;9.154;2022-09-09T13:33:58;24.40;98.40
2024;DHT22;1016;48.770;9.154;2022-09-09T13:36:32;24.60;97.70
2024;DHT22;1016;48.770;9.154;2022-09-09T13:38:59;24.70;96.80
2024;DHT22;1016;48.770;9.154;2022-09-09T13:41:32;24.80;96.50
2024;DHT22;1016;48.770;9.154;2022-09-09T13:44:00;25.20;95.90
2024;DHT22;1016;48.770;9.154;2022-09-09T13:46:38;25.30;93.80
2024;DHT22;1016;48.770;9.154;2022-09-09T13:51:44;25.10;93.20
2024;DHT22;1016;48.770;9.154;2022-09-09T13:54:13;25.10;92.90
2024;DHT22;1016;48.770;9.154;2022-09-09T13:56:39;25.10;92.90
2024;DHT22;1016;48.770;9.154;2022-09-09T13:59:13;25.10;93.20
2024;DHT22;1016;48.770;9.154;2022-09-09T14:01:39;25.00;92.90
2024;DHT22;1016;48.770;9.154;2022-09-09T14:04:06;24.90;92.80
2024;DHT22;1016;48.770;9.154;2022-09-09T14:06:33;24.80;92.80
2024;DHT22;1016;48.770;9.154;2022-09-09T14:09:02;24.80;93.10
2024;DHT22;1016;48.770;9.154;2022-09-09T14:11:28;24.90;92.50
2024;DHT22;1016;48.770;9.154;2022-09-09T14:13:53;25.00;92.90
2024;DHT22;1016;48.770;9.154;2022-09-09T14:16:19;25.10;91.70
2024;DHT22;1016;48.770;9.154;2022-09-09T14:18:47;25.10;91.50
2024;DHT22;1016;48.770;9.154;2022-09-09T14:21:13;25.80;91.90
2024;DHT22;1016;48.770;9.154;2022-09-09T14:23:40;27.20;90.30
2024;DHT22;1016;48.770;9.154;2022-09-09T14:26:06;27.70;90.00
2024;DHT22;1016;48.770;9.154;2022-09-09T14:28:32;27.80;86.70
2024;DHT22;1016;48.770;9.154;2022-09-09T14:31:02;27.30;85.60
2024;DHT22;1016;48.770;9.154;2022-09-09T14:33:29;26.90;85.70
2024;DHT22;1016;48.770;9.154;2022-09-09T14:35:59;29.80;85.10
2024;DHT22;1016;48.770;9.154;2022-09-09T14:38:29;30.30;83.10
2024;DHT22;1016;48.770;9.154;2022-09-09T14:40:55;31.10;77.20
2024;DHT22;1016;48.770;9.154;2022-09-09T14:43:21;31.50;73.50
2024;DHT22;1016;48.770;9.154;2022-09-09T14:45:47;33.10;73.30
2024;DHT22;1016;48.770;9.154;2022-09-09T14:48:16;36.20;66.00
2024;DHT22;1016;48.770;9.154;2022-09-09T14:50:42;38.50;57.30
2024;DHT22;1016;48.770;9.154;2022-09-09T14:53:08;39.60;54.10
2024;DHT22;1016;48.770;9.154;2022-09-09T14:55:34;40.10;49.60
2024;DHT22;1016;48.770;9.154;2022-09-09T14:58:00;40.70;47.70
2024;DHT22;1016;48.770;9.154;2022-09-09T15:00:25;40.10;45.10
2024;DHT22;1016;48.770;9.154;2022-09-09T15:02:54;39.60;44.00
2024;DHT22;1016;48.770;9.154;2022-09-09T15:05:21;39.10;43.30
2024;DHT22;1016;48.770;9.154;2022-09-09T15:07:47;37.90;42.50
2024;DHT22;1016;48.770;9.154;2022-09-09T15:10:14;36.10;43.10
2024;DHT22;1016;48.770;9.154;2022-09-09T15:12:39;34.70;43.60
2024;DHT22;1016;48.770;9.154;2022-09-09T15:15:07;33.30;44.50
2024;DHT22;1016;48.770;9.154;2022-09-09T15:17:33;32.10;45.80
2024;DHT22;1016;48.770;9.154;2022-09-09T15:19:59;31.20;47.30
2024;DHT22;1016;48.770;9.154;2022-09-09T15:22:25;30.30;48.20
2024;DHT22;1016;48.770;9.154;2022-09-09T15:24:50;29.30;49.20
2024;DHT22;1016;48.770;9.154;2022-09-09T15:27:16;28.40;50.30
2024;DHT22;1016;48.770;9.154;2022-09-09T15:29:42;27.70;51.00
2024;DHT22;1016;48.770;9.154;2022-09-09T15:32:07;27.20;52.00
2024;DHT22;1016;48.770;9.154;2022-09-09T15:34:33;26.80;52.80
2024;DHT22;1016;48.770;9.154;2022-09-09T15:36:58;26.40;53.80
2024;DHT22;1016;48.770;9.154;2022-09-09T15:39:25;26.00;54.80
2024;DHT22;1016;48.770;9.154;2022-09-09T15:41:50;25.70;55.20
2024;DHT22;1016;48.770;9.154;2022-09-09T15:44:16;25.50;57.20
2024;DHT22;1016;48.770;9.154;2022-09-09T15:46:43;25.20;57.60
2024;DHT22;1016;48.770;9.154;2022-09-09T15:49:10;25.00;58.20
2024;DHT22;1016;48.770;9.154;2022-09-09T15:51:37;24.80;59.60
2024;DHT22;1016;48.770;9.154;2022-09-09T15:54:03;24.50;60.10
2024;DHT22;1016;48.770;9.154;2022-09-09T15:56:29;24.40;62.00
2024;DHT22;1016;48.770;9.154;2022-09-09T15:58:56;24.30;63.00
2024;DHT22;1016;48.770;9.154;2022-09-09T16:01:22;24.10;63.70
2024;DHT22;1016;48.770;9.154;2022-09-09T16:03:48;24.00;64.80
2024;DHT22;1016;48.770;9.154;2022-09-09T16:06:16;23.90;64.70
2024;DHT22;1016;48.770;9.154;2022-09-09T16:08:43;23.80;65.20
2024;DHT22;1016;48.770;9.154;2022-09-09T16:11:10;23.70;65.70
2024;DHT22;1016;48.770;9.154;2022-09-09T16:13:37;23.70;66.00
2024;DHT22;1016;48.770;9.154;2022-09-09T16:16:05;23.50;66.30
2024;DHT22;1016;48.770;9.154;2022-09-09T16:18:38;23.40;67.20
2024;DHT22;1016;48.770;9.154;2022-09-09T16:21:04;23.40;67.80
2024;DHT22;1016;48.770;9.154;2022-09-09T16:23:33;23.20;68.00
2024;DHT22;1016;48.770;9.154;2022-09-09T16:25:59;23.20;68.60
2024;DHT22;1016;48.770;9.154;2022-09-09T16:28:25;23.10;69.10
2024;DHT22;1016;48.770;9.154;2022-09-09T16:30:51;23.00;69.90
2024;DHT22;1016;48.770;9.154;2022-09-09T16:33:16;23.00;71.00
2024;DHT22;1016;48.770;9.154;2022-09-09T16:35:42;22.90;71.20
2024;DHT22;1016;48.770;9.154;2022-09-09T16:38:08;22.90;72.40
2024;DHT22;1016;48.770;9.154;2022-09-09T16:40:34;23.00;74.90
2024;DHT22;1016;48.770;9.154;2022-09-09T16:43:00;22.80;75.90
2024;DHT22;1016;48.770;9.154;2022-09-09T16:45:25;22.60;76.30
2024;DHT22;1016;48.770;9.154;2022-09-09T16:47:51;22.50;77.70
2024;DHT22;1016;48.770;9.154;2022-09-09T16:50:16;22.50;79.10
2024;DHT22;1016;48.770;9.154;2022-09-09T16:55:08;22.20;79.40
2024;DHT22;1016;48.770;9.154;2022-09-09T16:57:34;22.00;81.20
2024;DHT22;1016;48.770;9.154;2022-09-09T17:00:00;22.00;83.00
2024;DHT22;1016;48.770;9.154;2022-09-09T17:02:26;21.80;84.10
2024;DHT22;1016;48.770;9.154;2022-09-09T17:04:51;21.60;84.50
2024;DHT22;1016;48.770;9.154;2022-09-09T17:07:17;21.60;85.30
2024;DHT22;1016;48.770;9.154;2022-09-09T17:09:44;21.50;86.60
2024;DHT22;1016;48.770;9.154;2022-09-09T17:12:10;21.40;86.90
2024;DHT22;1016;48.770;9.154;2022-09-09T17:14:37;21.40;87.80
2024;DHT22;1016;48.770;9.154;2022-09-09T17:17:03;21.40;89.00
2024;DHT22;1016;48.770;9.154;2022-09-09T17:19:30;21.30;89.40
2024;DHT22;1016;48.770;9.154;2022-09-09T17:21:55;21.20;90.20
2024;DHT22;1016;48.770;9.154;2022-09-09T17:24:24;21.10;90.50
2024;DHT22;1016;48.770;9.154;2022-09-09T17:26:51;21.10;91.10
2024;DHT22;1016;48.770;9.154;2022-09-09T17:29:16;21.10;91.50
2024;DHT22;1016;48.770;9.154;2022-09-09T17:31:42;21.10;92.00
2024;DHT22;1016;48.770;9.154;2022-09-09T17:34:08;21.00;92.60
2024;DHT22;1016;48.770;9.154;2022-09-09T17:36:34;21.00;92.60
2024;DHT22;1016;48.770;9.154;2022-09-09T17:38:59;20.90;93.10
2024;DHT22;1016;48.770;9.154;2022-09-09T17:41:35;20.90;93.90
2024;DHT22;1016;48.770;9.154;2022-09-09T17:44:01;20.90;94.30
2024;DHT22;1016;48.770;9.154;2022-09-09T17:46:29;20.80;94.40
2024;DHT22;1016;48.770;9.154;2022-09-09T17:48:56;20.80;94.90
2024;DHT22;1016;48.770;9.154;2022-09-09T17:51:23;20.80;95.40
2024;DHT22;1016;48.770;9.154;2022-09-09T17:53:50;20.80;96.10
2024;DHT22;1016;48.770;9.154;2022-09-09T17:56:17;20.70;96.30
2024;DHT22;1016;48.770;9.154;2022-09-09T17:58:45;20.70;96.60
2024;DHT22;1016;48.770;9.154;2022-09-09T18:01:12;20.60;97.10
2024;DHT22;1016;48.770;9.154;2022-09-09T18:03:38;20.60;97.50
2024;DHT22;1016;48.770;9.154;2022-09-09T18:06:05;20.60;97.80
2024;DHT22;1016;48.770;9.154;2022-09-09T18:08:31;20.60;98.40
2024;DHT22;1016;48.770;9.154;2022-09-09T18:10:56;20.60;98.50
2024;DHT22;1016;48.770;9.154;2022-09-09T18:13:22;20.60;98.80
2024;DHT22;1016;48.770;9.154;2022-09-09T18:15:47;20.50;99.30